Skip to Main Content

Live Traffic Cameras in Montgomery county may be offline at times this weekend due to network maintenance by the county.

 

SEARCH:
Location Air RH Dwp Precip Type Wind Speed Wind Gust Direction Pavement Temperature Date/Time
Hatem Bridge US 40 E/B 55 77 48 None - - No Data Available 47 - 47 10/21/2017 4:32:00 AM
I-270 at I-370 48 89 45 None Calm Calm N 54 - 55 10/21/2017 4:30:00 AM
I-270 at MD-109 42 100 42 None Calm Calm E 48 - 48 10/21/2017 4:30:00 AM
I-495 at American Legion Bridge 45 100 45 None Calm Calm NW 52 - 53 10/21/2017 4:30:00 AM
I-68 at MD-219 54 51 36 None Calm 6 mph S 50 - 51 10/21/2017 4:30:00 AM
I-68 at Savage Mt 51 60 38 None Calm Calm NW 49 - 49 10/21/2017 4:30:00 AM
I-68 at Sideling Hill 52 74 44 None Calm Calm NW 54 - 55 10/21/2017 4:30:00 AM
I-68 at WV Line 39 85 35 None Calm Calm NW 46 - 46 10/21/2017 4:30:00 AM
I-695 at I-83 44 91 42 None Calm 6 mph N 51 - 51 10/21/2017 4:30:00 AM
I-70 at Fred-Wash Co. - - - No Data Available - - No Data Available -
I-70 at I-695 45 95 43 None Calm Calm SW 52 - 55 10/21/2017 4:30:00 AM
I-70 at I-81 44 100 44 None Calm Calm SW - 10/21/2017 4:30:00 AM
I-70 at MD-27 55 53 38 None Calm Calm N 56 - 56 10/21/2017 4:30:00 AM
I-70 at MD-32 43 94 42 None Calm Calm N 51 - 51 10/21/2017 4:30:00 AM
I-83 at MD-137 45 100 45 None Calm Calm N 51 - 51 10/21/2017 4:30:00 AM
I-95 at I-695 NE 50 75 42 None Calm Calm N 54 - 55 10/21/2017 4:32:00 AM
I-95 at Patuxent River 50 94 48 None Calm 5 mph NE 52 - 54 10/21/2017 4:30:00 AM
I-95 at Tydings Bridge 50 85 46 None Calm Calm NW - 10/21/2017 4:30:00 AM
I-95/495 at I-295 58 70 49 Rain Calm Calm E 57 - 61 10/21/2017 4:30:00 AM
I-97 at MD-100 47 89 44 None Calm Calm SW 52 - 52 10/21/2017 4:30:00 AM
I-97 at MD-32 46 94 45 None 6 mph 7 mph N 53 - 53 10/21/2017 4:30:00 AM
MD 20 at MD 21 48 93 46 None Calm Calm N 53 - 53 10/21/2017 4:30:00 AM
MD 231 at Patuxent River 46 97 46 None Calm Calm NW 52 - 53 10/21/2017 4:30:00 AM
MD 260 at Cox Rd 48 92 46 None Calm Calm W 57 - 57 10/21/2017 4:30:00 AM
MD-135 at Salt Dome 50 63 38 None Calm 7 mph SE 50 - 50 10/21/2017 4:30:00 AM
MD-140 at MD-97 44 91 41 None Calm Calm E 52 - 52 10/21/2017 4:30:00 AM
MD-200 EB at Bonifant Rd 43 97 42 None Calm Calm N 47 - 48 10/21/2017 4:32:00 AM
MD-200 WB at Muncaster Mill Rd 41 94 40 None Calm Calm N 48 - 49 10/21/2017 4:32:00 AM
MD-213 at Sassafras River 51 100 51 None Calm Calm S 53 - 53 10/21/2017 4:30:00 AM
MD-24 at Rock St Park 42 100 42 None Calm Calm N 46 - 46 10/21/2017 4:30:00 AM
MD-30 at PA Line 62 39 37 None Calm Calm SE 56 - 56 10/21/2017 4:30:00 AM
MD-301 at MD-305 45 93 43 None Calm Calm N 52 - 53 10/21/2017 4:30:00 AM
MD-33 at Knapps Narrows Drawbridge 56 97 55 None Calm Calm N 59 - 59 10/21/2017 4:30:00 AM
MD-344 at MD-224 48 95 47 None Calm Calm SE 53 - 53 10/21/2017 4:30:00 AM
MD-4 at Patuxent River 53 100 53 Rain - - No Data Available 57 - 58 10/21/2017 4:30:00 AM
MD-404 at Choptank River 46 94 44 None Calm Calm N 51 - 53 10/21/2017 4:30:00 AM
MD-43 at MD-150 - - - No Data Available - - No Data Available -
MD-51 at Oldtown Salt Dome 38 95 37 None Calm Calm NW 52 - 52 10/21/2017 4:30:00 AM
MD-64 at MD-418 43 89 41 None Calm Calm SW 51 - 52 10/21/2017 4:30:00 AM
US-1 at Baltimore / Harford Co. Line - - - No Data Available - - No Data Available -
US-1 at Conowingo Dam 48 94 46 None Calm 4 mph NE 54 - 54 10/21/2017 4:30:00 AM
US-13 at US-113 47 95 46 None Calm Calm E 56 - 56 10/21/2017 4:30:00 AM
US-13 at US-50 - - - No Data Available - - No Data Available -
US-15 at MD-140 40 94 39 None Calm Calm N 48 - 49 10/21/2017 4:30:00 AM
US-301 at MD-5 47 98 47 None Calm Calm N 54 - 55 10/21/2017 4:30:00 AM
US-301 at Potomac 54 96 53 None 4 mph 5 mph NE 53 - 56 10/21/2017 4:30:00 AM
US-301 on HWN Bridge 59 93 57 Rain - - No Data Available 54 - 54 10/21/2017 4:32:00 AM
US-340 at MD-180 41 92 39 None Calm Calm W 48 - 49 10/21/2017 4:30:00 AM
US-50 at Choptank 53 100 53 None Calm Calm NE 56 - 57 10/21/2017 4:30:00 AM
US-50 at I-95 - - - No Data Available - - No Data Available -
US-50 at MD-2 51 93 49 None Calm Calm NW 54 - 56 10/21/2017 4:30:00 AM
US-50 at MD-331 51 87 47 None Calm Calm N 53 - 56 10/21/2017 4:30:00 AM
US-50 at OC Drawbridge 53 78 46 None Calm 4 mph NW 56 - 56 10/21/2017 4:30:00 AM
US-50 at Table Rock Rd 52 61 39 None 4 mph 5 mph E 52 - 52 10/21/2017 4:30:00 AM
US-50 Kent Narrow Bridge 57 100 57 None Calm Calm SW 58 - 58 10/21/2017 4:30:00 AM
WPL Pier 31 62 59 48 Rain Calm Calm N 56 - 56 10/21/2017 4:32:00 AM
Location Air RH Dwp Precip Type Wind Speed Wind Gust Direction Pavement Temperature Date/Time